sensor_id;sensor_type;location;lat;lon;timestamp;P1;durP1;ratioP1;P2;durP2;ratioP2
9445;SDS011;4761;49.490;10.908;2023-11-19T00:00:26;0.93;;;0.80;;
9445;SDS011;4761;49.490;10.908;2023-11-19T00:02:52;0.80;;;0.80;;
9445;SDS011;4761;49.490;10.908;2023-11-19T00:05:17;1.17;;;0.90;;
9445;SDS011;4761;49.490;10.908;2023-11-19T00:07:43;0.90;;;0.90;;
9445;SDS011;4761;49.490;10.908;2023-11-19T00:10:13;1.80;;;0.90;;
9445;SDS011;4761;49.490;10.908;2023-11-19T00:12:43;0.93;;;0.90;;
9445;SDS011;4761;49.490;10.908;2023-11-19T00:15:11;0.80;;;0.80;;
9445;SDS011;4761;49.490;10.908;2023-11-19T00:17:38;0.87;;;0.87;;
9445;SDS011;4761;49.490;10.908;2023-11-19T00:20:05;1.17;;;1.07;;
9445;SDS011;4761;49.490;10.908;2023-11-19T00:22:32;0.80;;;0.80;;
9445;SDS011;4761;49.490;10.908;2023-11-19T00:24:57;0.80;;;0.80;;
9445;SDS011;4761;49.490;10.908;2023-11-19T00:27:24;1.00;;;0.90;;
9445;SDS011;4761;49.490;10.908;2023-11-19T00:29:50;0.80;;;0.80;;
9445;SDS011;4761;49.490;10.908;2023-11-19T00:32:15;1.00;;;0.90;;
9445;SDS011;4761;49.490;10.908;2023-11-19T00:34:43;1.03;;;0.90;;
9445;SDS011;4761;49.490;10.908;2023-11-19T00:37:12;0.70;;;0.70;;
9445;SDS011;4761;49.490;10.908;2023-11-19T00:39:38;0.90;;;0.90;;
9445;SDS011;4761;49.490;10.908;2023-11-19T00:42:04;0.60;;;0.60;;
9445;SDS011;4761;49.490;10.908;2023-11-19T00:44:30;0.73;;;0.73;;
9445;SDS011;4761;49.490;10.908;2023-11-19T00:46:56;1.00;;;0.90;;
9445;SDS011;4761;49.490;10.908;2023-11-19T00:49:21;1.10;;;1.00;;
9445;SDS011;4761;49.490;10.908;2023-11-19T00:51:47;1.43;;;0.90;;
9445;SDS011;4761;49.490;10.908;2023-11-19T00:54:12;0.60;;;0.60;;
9445;SDS011;4761;49.490;10.908;2023-11-19T00:56:38;1.23;;;1.13;;
9445;SDS011;4761;49.490;10.908;2023-11-19T00:59:04;0.80;;;0.80;;
9445;SDS011;4761;49.490;10.908;2023-11-19T01:01:30;0.70;;;0.70;;
9445;SDS011;4761;49.490;10.908;2023-11-19T01:03:55;1.00;;;0.90;;
9445;SDS011;4761;49.490;10.908;2023-11-19T01:06:28;1.00;;;0.90;;
9445;SDS011;4761;49.490;10.908;2023-11-19T01:08:55;0.80;;;0.80;;
9445;SDS011;4761;49.490;10.908;2023-11-19T01:11:24;0.80;;;0.80;;
9445;SDS011;4761;49.490;10.908;2023-11-19T01:13:50;0.70;;;0.70;;
9445;SDS011;4761;49.490;10.908;2023-11-19T01:16:16;0.80;;;0.80;;
9445;SDS011;4761;49.490;10.908;2023-11-19T01:18:42;0.90;;;0.90;;
9445;SDS011;4761;49.490;10.908;2023-11-19T01:21:08;1.07;;;0.97;;
9445;SDS011;4761;49.490;10.908;2023-11-19T01:23:34;1.00;;;0.90;;
9445;SDS011;4761;49.490;10.908;2023-11-19T01:26:00;1.27;;;0.93;;
9445;SDS011;4761;49.490;10.908;2023-11-19T01:28:25;1.20;;;0.80;;
9445;SDS011;4761;49.490;10.908;2023-11-19T01:30:51;0.93;;;0.83;;
9445;SDS011;4761;49.490;10.908;2023-11-19T01:33:17;0.90;;;0.87;;
9445;SDS011;4761;49.490;10.908;2023-11-19T01:35:42;0.80;;;0.80;;
9445;SDS011;4761;49.490;10.908;2023-11-19T01:38:08;0.60;;;0.60;;
9445;SDS011;4761;49.490;10.908;2023-11-19T01:40:33;0.80;;;0.80;;
9445;SDS011;4761;49.490;10.908;2023-11-19T01:43:01;0.70;;;0.70;;
9445;SDS011;4761;49.490;10.908;2023-11-19T01:45:27;0.87;;;0.87;;
9445;SDS011;4761;49.490;10.908;2023-11-19T01:47:58;1.00;;;1.00;;
9445;SDS011;4761;49.490;10.908;2023-11-19T01:50:25;0.93;;;0.80;;
9445;SDS011;4761;49.490;10.908;2023-11-19T01:52:55;0.93;;;0.93;;
9445;SDS011;4761;49.490;10.908;2023-11-19T01:55:22;0.97;;;0.90;;
9445;SDS011;4761;49.490;10.908;2023-11-19T01:57:50;0.73;;;0.73;;
9445;SDS011;4761;49.490;10.908;2023-11-19T02:00:17;0.90;;;0.90;;
9445;SDS011;4761;49.490;10.908;2023-11-19T02:02:44;0.70;;;0.70;;
9445;SDS011;4761;49.490;10.908;2023-11-19T02:05:14;0.90;;;0.80;;
9445;SDS011;4761;49.490;10.908;2023-11-19T02:07:40;1.10;;;1.00;;
9445;SDS011;4761;49.490;10.908;2023-11-19T02:10:06;0.93;;;0.87;;
9445;SDS011;4761;49.490;10.908;2023-11-19T02:12:37;0.67;;;0.67;;
9445;SDS011;4761;49.490;10.908;2023-11-19T02:15:03;0.90;;;0.90;;
9445;SDS011;4761;49.490;10.908;2023-11-19T02:17:30;0.73;;;0.73;;
9445;SDS011;4761;49.490;10.908;2023-11-19T02:20:05;0.93;;;0.93;;
9445;SDS011;4761;49.490;10.908;2023-11-19T02:22:34;0.90;;;0.90;;
9445;SDS011;4761;49.490;10.908;2023-11-19T02:25:00;1.10;;;1.00;;
9445;SDS011;4761;49.490;10.908;2023-11-19T02:27:31;0.90;;;0.90;;
9445;SDS011;4761;49.490;10.908;2023-11-19T02:30:11;0.80;;;0.80;;
9445;SDS011;4761;49.490;10.908;2023-11-19T02:32:40;0.97;;;0.97;;
9445;SDS011;4761;49.490;10.908;2023-11-19T02:35:06;1.07;;;1.03;;
9445;SDS011;4761;49.490;10.908;2023-11-19T02:37:33;0.80;;;0.80;;
9445;SDS011;4761;49.490;10.908;2023-11-19T02:39:59;0.73;;;0.73;;
9445;SDS011;4761;49.490;10.908;2023-11-19T02:42:27;0.93;;;0.83;;
9445;SDS011;4761;49.490;10.908;2023-11-19T02:44:53;0.90;;;0.90;;
9445;SDS011;4761;49.490;10.908;2023-11-19T02:47:19;0.80;;;0.80;;
9445;SDS011;4761;49.490;10.908;2023-11-19T02:49:48;0.93;;;0.93;;
9445;SDS011;4761;49.490;10.908;2023-11-19T02:52:14;0.60;;;0.60;;
9445;SDS011;4761;49.490;10.908;2023-11-19T02:54:40;1.10;;;1.00;;
9445;SDS011;4761;49.490;10.908;2023-11-19T02:57:07;0.87;;;0.87;;
9445;SDS011;4761;49.490;10.908;2023-11-19T02:59:37;0.90;;;0.80;;
9445;SDS011;4761;49.490;10.908;2023-11-19T03:02:04;0.90;;;0.80;;
9445;SDS011;4761;49.490;10.908;2023-11-19T03:04:36;0.70;;;0.70;;
9445;SDS011;4761;49.490;10.908;2023-11-19T03:07:05;0.73;;;0.73;;
9445;SDS011;4761;49.490;10.908;2023-11-19T03:09:32;0.70;;;0.70;;
9445;SDS011;4761;49.490;10.908;2023-11-19T03:11:58;0.70;;;0.70;;
9445;SDS011;4761;49.490;10.908;2023-11-19T03:14:24;0.87;;;0.87;;
9445;SDS011;4761;49.490;10.908;2023-11-19T03:16:49;1.93;;;0.97;;
9445;SDS011;4761;49.490;10.908;2023-11-19T03:19:15;0.90;;;0.87;;
9445;SDS011;4761;49.490;10.908;2023-11-19T03:21:41;0.70;;;0.70;;
9445;SDS011;4761;49.490;10.908;2023-11-19T03:24:06;0.97;;;0.80;;
9445;SDS011;4761;49.490;10.908;2023-11-19T03:26:33;0.80;;;0.80;;
9445;SDS011;4761;49.490;10.908;2023-11-19T03:28:59;0.97;;;0.90;;
9445;SDS011;4761;49.490;10.908;2023-11-19T03:31:24;0.80;;;0.80;;
9445;SDS011;4761;49.490;10.908;2023-11-19T03:33:50;0.90;;;0.90;;
9445;SDS011;4761;49.490;10.908;2023-11-19T03:36:16;1.60;;;1.00;;
9445;SDS011;4761;49.490;10.908;2023-11-19T03:38:42;0.97;;;0.80;;
9445;SDS011;4761;49.490;10.908;2023-11-19T03:41:11;1.23;;;0.90;;
9445;SDS011;4761;49.490;10.908;2023-11-19T03:43:37;1.47;;;1.00;;
9445;SDS011;4761;49.490;10.908;2023-11-19T03:46:04;0.80;;;0.80;;
9445;SDS011;4761;49.490;10.908;2023-11-19T03:48:30;1.00;;;0.90;;
9445;SDS011;4761;49.490;10.908;2023-11-19T03:50:56;1.07;;;1.00;;
9445;SDS011;4761;49.490;10.908;2023-11-19T03:53:21;1.00;;;0.83;;
9445;SDS011;4761;49.490;10.908;2023-11-19T03:55:48;0.80;;;0.80;;
9445;SDS011;4761;49.490;10.908;2023-11-19T03:58:15;1.17;;;1.07;;
9445;SDS011;4761;49.490;10.908;2023-11-19T04:00:40;0.80;;;0.80;;
9445;SDS011;4761;49.490;10.908;2023-11-19T04:03:06;0.90;;;0.90;;
9445;SDS011;4761;49.490;10.908;2023-11-19T04:05:31;0.90;;;0.90;;
9445;SDS011;4761;49.490;10.908;2023-11-19T04:07:57;1.67;;;0.90;;
9445;SDS011;4761;49.490;10.908;2023-11-19T04:10:22;1.00;;;0.80;;
9445;SDS011;4761;49.490;10.908;2023-11-19T04:12:48;0.97;;;0.80;;
9445;SDS011;4761;49.490;10.908;2023-11-19T04:15:14;0.87;;;0.87;;
9445;SDS011;4761;49.490;10.908;2023-11-19T04:17:39;0.83;;;0.83;;
9445;SDS011;4761;49.490;10.908;2023-11-19T04:20:05;0.93;;;0.90;;
9445;SDS011;4761;49.490;10.908;2023-11-19T04:22:35;0.80;;;0.80;;
9445;SDS011;4761;49.490;10.908;2023-11-19T04:25:01;0.90;;;0.90;;
9445;SDS011;4761;49.490;10.908;2023-11-19T04:27:26;1.20;;;0.80;;
9445;SDS011;4761;49.490;10.908;2023-11-19T04:29:52;0.80;;;0.80;;
9445;SDS011;4761;49.490;10.908;2023-11-19T04:32:17;0.90;;;0.90;;
9445;SDS011;4761;49.490;10.908;2023-11-19T04:34:43;0.90;;;0.90;;
9445;SDS011;4761;49.490;10.908;2023-11-19T04:37:08;0.80;;;0.80;;
9445;SDS011;4761;49.490;10.908;2023-11-19T04:39:34;0.90;;;0.90;;
9445;SDS011;4761;49.490;10.908;2023-11-19T04:42:00;0.80;;;0.80;;
9445;SDS011;4761;49.490;10.908;2023-11-19T04:44:25;1.40;;;0.90;;
9445;SDS011;4761;49.490;10.908;2023-11-19T04:46:51;1.13;;;1.00;;
9445;SDS011;4761;49.490;10.908;2023-11-19T04:49:16;1.00;;;0.90;;
9445;SDS011;4761;49.490;10.908;2023-11-19T04:51:44;1.10;;;1.00;;
9445;SDS011;4761;49.490;10.908;2023-11-19T04:54:12;0.73;;;0.73;;
9445;SDS011;4761;49.490;10.908;2023-11-19T04:56:38;1.47;;;1.00;;
9445;SDS011;4761;49.490;10.908;2023-11-19T04:59:04;0.73;;;0.73;;
9445;SDS011;4761;49.490;10.908;2023-11-19T05:01:31;0.80;;;0.80;;
9445;SDS011;4761;49.490;10.908;2023-11-19T05:04:00;1.10;;;0.90;;
9445;SDS011;4761;49.490;10.908;2023-11-19T05:06:27;1.07;;;0.80;;
9445;SDS011;4761;49.490;10.908;2023-11-19T05:08:54;0.93;;;0.93;;
9445;SDS011;4761;49.490;10.908;2023-11-19T05:11:20;0.80;;;0.80;;
9445;SDS011;4761;49.490;10.908;2023-11-19T05:13:46;0.80;;;0.80;;
9445;SDS011;4761;49.490;10.908;2023-11-19T05:16:11;1.00;;;0.90;;
9445;SDS011;4761;49.490;10.908;2023-11-19T05:18:40;0.97;;;0.97;;
9445;SDS011;4761;49.490;10.908;2023-11-19T05:21:06;0.90;;;0.90;;
9445;SDS011;4761;49.490;10.908;2023-11-19T05:23:32;1.57;;;0.90;;
9445;SDS011;4761;49.490;10.908;2023-11-19T05:25:59;1.03;;;1.00;;
9445;SDS011;4761;49.490;10.908;2023-11-19T05:28:26;0.90;;;0.90;;
9445;SDS011;4761;49.490;10.908;2023-11-19T05:30:51;0.90;;;0.90;;
9445;SDS011;4761;49.490;10.908;2023-11-19T05:33:17;1.20;;;1.00;;
9445;SDS011;4761;49.490;10.908;2023-11-19T05:35:42;1.20;;;1.10;;
9445;SDS011;4761;49.490;10.908;2023-11-19T05:38:08;1.03;;;1.03;;
9445;SDS011;4761;49.490;10.908;2023-11-19T05:40:34;1.20;;;1.10;;
9445;SDS011;4761;49.490;10.908;2023-11-19T05:43:00;1.10;;;1.00;;
9445;SDS011;4761;49.490;10.908;2023-11-19T05:45:27;0.80;;;0.80;;
9445;SDS011;4761;49.490;10.908;2023-11-19T05:47:52;0.90;;;0.90;;
9445;SDS011;4761;49.490;10.908;2023-11-19T05:50:18;0.80;;;0.80;;
9445;SDS011;4761;49.490;10.908;2023-11-19T05:52:44;1.00;;;0.97;;
9445;SDS011;4761;49.490;10.908;2023-11-19T05:55:09;0.87;;;0.80;;
9445;SDS011;4761;49.490;10.908;2023-11-19T05:57:36;0.73;;;0.73;;
9445;SDS011;4761;49.490;10.908;2023-11-19T06:00:02;0.93;;;0.80;;
9445;SDS011;4761;49.490;10.908;2023-11-19T06:02:32;1.00;;;0.90;;
9445;SDS011;4761;49.490;10.908;2023-11-19T06:04:57;0.80;;;0.80;;
9445;SDS011;4761;49.490;10.908;2023-11-19T06:07:23;0.80;;;0.80;;
9445;SDS011;4761;49.490;10.908;2023-11-19T06:09:50;0.70;;;0.70;;
9445;SDS011;4761;49.490;10.908;2023-11-19T06:12:15;0.63;;;0.63;;
9445;SDS011;4761;49.490;10.908;2023-11-19T06:14:41;0.60;;;0.60;;
9445;SDS011;4761;49.490;10.908;2023-11-19T06:17:06;0.60;;;0.60;;
9445;SDS011;4761;49.490;10.908;2023-11-19T06:19:33;0.60;;;0.60;;
9445;SDS011;4761;49.490;10.908;2023-11-19T06:21:59;0.97;;;0.70;;
9445;SDS011;4761;49.490;10.908;2023-11-19T06:24:24;1.03;;;0.60;;
9445;SDS011;4761;49.490;10.908;2023-11-19T06:26:50;0.90;;;0.70;;
9445;SDS011;4761;49.490;10.908;2023-11-19T06:29:15;0.63;;;0.60;;
9445;SDS011;4761;49.490;10.908;2023-11-19T06:31:44;0.50;;;0.50;;
9445;SDS011;4761;49.490;10.908;2023-11-19T06:34:10;1.07;;;0.60;;
9445;SDS011;4761;49.490;10.908;2023-11-19T06:36:35;0.50;;;0.50;;
9445;SDS011;4761;49.490;10.908;2023-11-19T06:39:01;1.17;;;0.60;;
9445;SDS011;4761;49.490;10.908;2023-11-19T06:41:27;0.70;;;0.53;;
9445;SDS011;4761;49.490;10.908;2023-11-19T06:43:53;0.50;;;0.50;;
9445;SDS011;4761;49.490;10.908;2023-11-19T06:46:19;0.47;;;0.40;;
9445;SDS011;4761;49.490;10.908;2023-11-19T06:48:45;1.20;;;0.53;;
9445;SDS011;4761;49.490;10.908;2023-11-19T06:51:11;1.03;;;0.60;;
9445;SDS011;4761;49.490;10.908;2023-11-19T06:53:37;0.73;;;0.43;;
9445;SDS011;4761;49.490;10.908;2023-11-19T06:56:04;1.10;;;0.50;;
9445;SDS011;4761;49.490;10.908;2023-11-19T06:58:31;0.87;;;0.50;;
9445;SDS011;4761;49.490;10.908;2023-11-19T07:01:00;0.90;;;0.40;;
9445;SDS011;4761;49.490;10.908;2023-11-19T07:03:26;0.73;;;0.47;;
9445;SDS011;4761;49.490;10.908;2023-11-19T07:05:51;0.80;;;0.50;;
9445;SDS011;4761;49.490;10.908;2023-11-19T07:08:17;0.93;;;0.50;;
9445;SDS011;4761;49.490;10.908;2023-11-19T07:10:42;0.50;;;0.43;;
9445;SDS011;4761;49.490;10.908;2023-11-19T07:13:08;0.70;;;0.50;;
9445;SDS011;4761;49.490;10.908;2023-11-19T07:15:33;0.50;;;0.47;;
9445;SDS011;4761;49.490;10.908;2023-11-19T07:17:59;0.80;;;0.40;;
9445;SDS011;4761;49.490;10.908;2023-11-19T07:20:25;0.80;;;0.40;;
9445;SDS011;4761;49.490;10.908;2023-11-19T07:22:51;0.57;;;0.57;;
9445;SDS011;4761;49.490;10.908;2023-11-19T07:25:17;0.50;;;0.50;;
9445;SDS011;4761;49.490;10.908;2023-11-19T07:27:42;0.70;;;0.60;;
9445;SDS011;4761;49.490;10.908;2023-11-19T07:30:08;1.23;;;0.40;;
9445;SDS011;4761;49.490;10.908;2023-11-19T07:32:34;0.60;;;0.40;;
9445;SDS011;4761;49.490;10.908;2023-11-19T07:34:59;0.53;;;0.43;;
9445;SDS011;4761;49.490;10.908;2023-11-19T07:37:25;1.57;;;0.50;;
9445;SDS011;4761;49.490;10.908;2023-11-19T07:39:51;0.47;;;0.47;;
9445;SDS011;4761;49.490;10.908;2023-11-19T07:42:16;0.30;;;0.30;;
9445;SDS011;4761;49.490;10.908;2023-11-19T07:44:43;0.60;;;0.40;;
9445;SDS011;4761;49.490;10.908;2023-11-19T07:47:09;0.40;;;0.40;;
9445;SDS011;4761;49.490;10.908;2023-11-19T07:49:35;0.47;;;0.30;;
9445;SDS011;4761;49.490;10.908;2023-11-19T07:52:00;0.40;;;0.40;;
9445;SDS011;4761;49.490;10.908;2023-11-19T07:54:28;0.60;;;0.50;;
9445;SDS011;4761;49.490;10.908;2023-11-19T07:56:53;0.37;;;0.37;;
9445;SDS011;4761;49.490;10.908;2023-11-19T07:59:19;0.30;;;0.30;;
9445;SDS011;4761;49.490;10.908;2023-11-19T08:01:44;0.87;;;0.40;;
9445;SDS011;4761;49.490;10.908;2023-11-19T08:04:10;0.50;;;0.50;;
9445;SDS011;4761;49.490;10.908;2023-11-19T08:06:36;0.30;;;0.30;;
9445;SDS011;4761;49.490;10.908;2023-11-19T08:09:01;0.40;;;0.40;;
9445;SDS011;4761;49.490;10.908;2023-11-19T08:11:27;0.33;;;0.33;;
9445;SDS011;4761;49.490;10.908;2023-11-19T08:13:52;0.47;;;0.40;;
9445;SDS011;4761;49.490;10.908;2023-11-19T08:16:18;0.50;;;0.50;;
9445;SDS011;4761;49.490;10.908;2023-11-19T08:18:43;0.50;;;0.50;;
9445;SDS011;4761;49.490;10.908;2023-11-19T08:21:09;0.40;;;0.40;;
9445;SDS011;4761;49.490;10.908;2023-11-19T08:23:35;0.37;;;0.37;;
9445;SDS011;4761;49.490;10.908;2023-11-19T08:26:01;0.40;;;0.40;;
9445;SDS011;4761;49.490;10.908;2023-11-19T08:28:27;0.37;;;0.37;;
9445;SDS011;4761;49.490;10.908;2023-11-19T08:30:53;0.40;;;0.40;;
9445;SDS011;4761;49.490;10.908;2023-11-19T08:33:18;0.50;;;0.50;;
9445;SDS011;4761;49.490;10.908;2023-11-19T08:35:47;0.30;;;0.30;;
9445;SDS011;4761;49.490;10.908;2023-11-19T08:38:13;0.30;;;0.30;;
9445;SDS011;4761;49.490;10.908;2023-11-19T08:40:38;0.40;;;0.40;;
9445;SDS011;4761;49.490;10.908;2023-11-19T08:43:04;0.70;;;0.50;;
9445;SDS011;4761;49.490;10.908;2023-11-19T08:45:29;0.30;;;0.30;;
9445;SDS011;4761;49.490;10.908;2023-11-19T08:47:56;0.50;;;0.50;;
9445;SDS011;4761;49.490;10.908;2023-11-19T08:50:22;0.40;;;0.30;;
9445;SDS011;4761;49.490;10.908;2023-11-19T08:52:47;0.57;;;0.50;;
9445;SDS011;4761;49.490;10.908;2023-11-19T08:55:13;1.07;;;0.40;;
9445;SDS011;4761;49.490;10.908;2023-11-19T08:57:38;1.23;;;0.30;;
9445;SDS011;4761;49.490;10.908;2023-11-19T09:00:04;0.50;;;0.40;;
9445;SDS011;4761;49.490;10.908;2023-11-19T09:02:32;0.40;;;0.40;;
9445;SDS011;4761;49.490;10.908;2023-11-19T09:05:02;0.40;;;0.40;;
9445;SDS011;4761;49.490;10.908;2023-11-19T09:07:28;0.30;;;0.30;;
9445;SDS011;4761;49.490;10.908;2023-11-19T09:09:53;0.57;;;0.47;;
9445;SDS011;4761;49.490;10.908;2023-11-19T09:12:19;0.40;;;0.40;;
9445;SDS011;4761;49.490;10.908;2023-11-19T09:14:44;1.10;;;0.40;;
9445;SDS011;4761;49.490;10.908;2023-11-19T09:17:10;0.37;;;0.37;;
9445;SDS011;4761;49.490;10.908;2023-11-19T09:19:36;0.40;;;0.40;;
9445;SDS011;4761;49.490;10.908;2023-11-19T09:22:02;0.30;;;0.30;;
9445;SDS011;4761;49.490;10.908;2023-11-19T09:24:27;0.40;;;0.30;;
9445;SDS011;4761;49.490;10.908;2023-11-19T09:26:53;0.43;;;0.43;;
9445;SDS011;4761;49.490;10.908;2023-11-19T09:29:19;0.40;;;0.40;;
9445;SDS011;4761;49.490;10.908;2023-11-19T09:31:46;0.40;;;0.37;;
9445;SDS011;4761;49.490;10.908;2023-11-19T09:34:12;0.50;;;0.47;;
9445;SDS011;4761;49.490;10.908;2023-11-19T09:36:37;0.40;;;0.40;;
9445;SDS011;4761;49.490;10.908;2023-11-19T09:39:03;0.50;;;0.50;;
9445;SDS011;4761;49.490;10.908;2023-11-19T09:41:30;0.40;;;0.40;;
9445;SDS011;4761;49.490;10.908;2023-11-19T09:43:56;0.73;;;0.47;;
9445;SDS011;4761;49.490;10.908;2023-11-19T09:46:22;0.97;;;0.50;;
9445;SDS011;4761;49.490;10.908;2023-11-19T09:48:49;0.50;;;0.50;;
9445;SDS011;4761;49.490;10.908;2023-11-19T09:51:19;0.73;;;0.40;;
9445;SDS011;4761;49.490;10.908;2023-11-19T09:53:45;0.50;;;0.40;;
9445;SDS011;4761;49.490;10.908;2023-11-19T09:56:11;0.70;;;0.40;;
9445;SDS011;4761;49.490;10.908;2023-11-19T09:58:37;0.77;;;0.53;;
9445;SDS011;4761;49.490;10.908;2023-11-19T10:01:03;0.80;;;0.50;;
9445;SDS011;4761;49.490;10.908;2023-11-19T10:03:34;0.43;;;0.40;;
9445;SDS011;4761;49.490;10.908;2023-11-19T10:06:03;0.63;;;0.50;;
9445;SDS011;4761;49.490;10.908;2023-11-19T10:08:31;0.57;;;0.40;;
9445;SDS011;4761;49.490;10.908;2023-11-19T10:10:58;0.60;;;0.50;;
9445;SDS011;4761;49.490;10.908;2023-11-19T10:13:28;0.83;;;0.40;;
9445;SDS011;4761;49.490;10.908;2023-11-19T10:15:55;0.57;;;0.50;;
9445;SDS011;4761;49.490;10.908;2023-11-19T10:18:28;0.40;;;0.40;;
9445;SDS011;4761;49.490;10.908;2023-11-19T10:20:53;1.50;;;0.63;;
9445;SDS011;4761;49.490;10.908;2023-11-19T10:23:20;0.43;;;0.43;;
9445;SDS011;4761;49.490;10.908;2023-11-19T10:25:45;0.50;;;0.40;;
9445;SDS011;4761;49.490;10.908;2023-11-19T10:28:11;0.40;;;0.40;;
9445;SDS011;4761;49.490;10.908;2023-11-19T10:30:39;0.90;;;0.60;;
9445;SDS011;4761;49.490;10.908;2023-11-19T10:33:10;0.67;;;0.60;;
9445;SDS011;4761;49.490;10.908;2023-11-19T10:35:52;0.70;;;0.40;;
9445;SDS011;4761;49.490;10.908;2023-11-19T10:38:19;0.50;;;0.50;;
9445;SDS011;4761;49.490;10.908;2023-11-19T10:40:45;0.67;;;0.50;;
9445;SDS011;4761;49.490;10.908;2023-11-19T10:43:10;0.50;;;0.43;;
9445;SDS011;4761;49.490;10.908;2023-11-19T10:45:37;0.50;;;0.50;;
9445;SDS011;4761;49.490;10.908;2023-11-19T10:48:03;1.53;;;0.50;;
9445;SDS011;4761;49.490;10.908;2023-11-19T10:50:31;0.40;;;0.40;;
9445;SDS011;4761;49.490;10.908;2023-11-19T10:53:01;0.50;;;0.50;;
9445;SDS011;4761;49.490;10.908;2023-11-19T10:55:31;0.50;;;0.50;;
9445;SDS011;4761;49.490;10.908;2023-11-19T10:58:03;0.93;;;0.50;;
9445;SDS011;4761;49.490;10.908;2023-11-19T11:00:34;0.43;;;0.43;;
9445;SDS011;4761;49.490;10.908;2023-11-19T11:03:10;0.40;;;0.40;;
9445;SDS011;4761;49.490;10.908;2023-11-19T11:05:41;0.50;;;0.40;;
9445;SDS011;4761;49.490;10.908;2023-11-19T11:08:07;0.40;;;0.40;;
9445;SDS011;4761;49.490;10.908;2023-11-19T11:10:35;0.50;;;0.50;;
9445;SDS011;4761;49.490;10.908;2023-11-19T11:13:06;2.97;;;0.50;;
9445;SDS011;4761;49.490;10.908;2023-11-19T11:15:32;2.80;;;0.50;;
9445;SDS011;4761;49.490;10.908;2023-11-19T11:18:00;0.67;;;0.50;;
9445;SDS011;4761;49.490;10.908;2023-11-19T11:20:30;1.20;;;0.50;;
9445;SDS011;4761;49.490;10.908;2023-11-19T11:28:23;0.50;;;0.50;;
9445;SDS011;4761;49.490;10.908;2023-11-19T11:31:08;1.77;;;0.53;;
9445;SDS011;4761;49.490;10.908;2023-11-19T11:36:25;1.20;;;0.43;;
9445;SDS011;4761;49.490;10.908;2023-11-19T11:38:51;0.57;;;0.50;;
9445;SDS011;4761;49.490;10.908;2023-11-19T11:41:19;0.40;;;0.40;;
9445;SDS011;4761;49.490;10.908;2023-11-19T11:43:53;1.70;;;0.47;;
9445;SDS011;4761;49.490;10.908;2023-11-19T11:49:03;0.70;;;0.57;;
9445;SDS011;4761;49.490;10.908;2023-11-19T11:57:02;0.70;;;0.50;;
9445;SDS011;4761;49.490;10.908;2023-11-19T11:59:35;0.83;;;0.60;;
9445;SDS011;4761;49.490;10.908;2023-11-19T12:02:12;0.97;;;0.50;;
9445;SDS011;4761;49.490;10.908;2023-11-19T12:04:52;0.93;;;0.60;;
9445;SDS011;4761;49.490;10.908;2023-11-19T12:07:19;0.47;;;0.47;;
9445;SDS011;4761;49.490;10.908;2023-11-19T12:09:47;0.60;;;0.57;;
9445;SDS011;4761;49.490;10.908;2023-11-19T12:12:23;0.73;;;0.60;;
9445;SDS011;4761;49.490;10.908;2023-11-19T12:20:02;0.53;;;0.50;;
9445;SDS011;4761;49.490;10.908;2023-11-19T12:22:31;0.73;;;0.60;;
9445;SDS011;4761;49.490;10.908;2023-11-19T12:24:56;0.63;;;0.50;;
9445;SDS011;4761;49.490;10.908;2023-11-19T12:27:22;0.97;;;0.70;;
9445;SDS011;4761;49.490;10.908;2023-11-19T12:29:48;0.67;;;0.50;;
9445;SDS011;4761;49.490;10.908;2023-11-19T12:32:14;1.33;;;0.70;;
9445;SDS011;4761;49.490;10.908;2023-11-19T12:34:40;1.23;;;0.87;;
9445;SDS011;4761;49.490;10.908;2023-11-19T12:37:05;0.83;;;0.63;;
9445;SDS011;4761;49.490;10.908;2023-11-19T12:39:31;0.70;;;0.60;;
9445;SDS011;4761;49.490;10.908;2023-11-19T12:41:57;1.23;;;0.80;;
9445;SDS011;4761;49.490;10.908;2023-11-19T12:44:24;0.70;;;0.60;;
9445;SDS011;4761;49.490;10.908;2023-11-19T12:49:34;1.57;;;0.70;;
9445;SDS011;4761;49.490;10.908;2023-11-19T12:52:00;1.23;;;0.70;;
9445;SDS011;4761;49.490;10.908;2023-11-19T12:54:35;1.57;;;0.60;;
9445;SDS011;4761;49.490;10.908;2023-11-19T12:57:02;1.20;;;0.80;;
9445;SDS011;4761;49.490;10.908;2023-11-19T12:59:28;1.23;;;0.70;;
9445;SDS011;4761;49.490;10.908;2023-11-19T13:01:54;1.77;;;0.83;;
9445;SDS011;4761;49.490;10.908;2023-11-19T13:04:20;0.70;;;0.60;;
9445;SDS011;4761;49.490;10.908;2023-11-19T13:06:46;2.00;;;0.90;;
9445;SDS011;4761;49.490;10.908;2023-11-19T13:09:21;1.57;;;0.70;;
9445;SDS011;4761;49.490;10.908;2023-11-19T13:11:51;0.80;;;0.70;;
9445;SDS011;4761;49.490;10.908;2023-11-19T13:14:17;0.93;;;0.70;;
9445;SDS011;4761;49.490;10.908;2023-11-19T13:16:44;1.43;;;0.63;;
9445;SDS011;4761;49.490;10.908;2023-11-19T13:19:13;0.90;;;0.70;;
9445;SDS011;4761;49.490;10.908;2023-11-19T13:21:39;0.83;;;0.70;;
9445;SDS011;4761;49.490;10.908;2023-11-19T13:24:08;0.90;;;0.70;;
9445;SDS011;4761;49.490;10.908;2023-11-19T13:26:33;0.53;;;0.50;;
9445;SDS011;4761;49.490;10.908;2023-11-19T13:29:03;2.77;;;0.70;;
9445;SDS011;4761;49.490;10.908;2023-11-19T13:31:28;0.40;;;0.40;;
9445;SDS011;4761;49.490;10.908;2023-11-19T13:33:54;0.93;;;0.70;;
9445;SDS011;4761;49.490;10.908;2023-11-19T13:36:19;0.60;;;0.60;;
9445;SDS011;4761;49.490;10.908;2023-11-19T13:38:45;0.87;;;0.80;;
9445;SDS011;4761;49.490;10.908;2023-11-19T13:41:11;1.00;;;0.80;;
9445;SDS011;4761;49.490;10.908;2023-11-19T13:43:38;0.60;;;0.60;;
9445;SDS011;4761;49.490;10.908;2023-11-19T13:46:04;1.40;;;0.60;;
9445;SDS011;4761;49.490;10.908;2023-11-19T13:48:30;0.83;;;0.60;;
9445;SDS011;4761;49.490;10.908;2023-11-19T13:50:56;0.73;;;0.60;;
9445;SDS011;4761;49.490;10.908;2023-11-19T13:53:22;0.60;;;0.50;;
9445;SDS011;4761;49.490;10.908;2023-11-19T13:55:48;0.53;;;0.50;;
9445;SDS011;4761;49.490;10.908;2023-11-19T13:58:14;0.80;;;0.60;;
9445;SDS011;4761;49.490;10.908;2023-11-19T14:00:40;0.97;;;0.67;;
9445;SDS011;4761;49.490;10.908;2023-11-19T14:03:07;1.00;;;0.60;;
9445;SDS011;4761;49.490;10.908;2023-11-19T14:05:33;0.83;;;0.53;;
9445;SDS011;4761;49.490;10.908;2023-11-19T14:07:59;0.67;;;0.63;;
9445;SDS011;4761;49.490;10.908;2023-11-19T14:10:26;2.03;;;0.90;;
9445;SDS011;4761;49.490;10.908;2023-11-19T14:12:51;1.03;;;0.60;;
9445;SDS011;4761;49.490;10.908;2023-11-19T14:15:17;0.83;;;0.63;;
9445;SDS011;4761;49.490;10.908;2023-11-19T14:17:43;1.63;;;0.67;;
9445;SDS011;4761;49.490;10.908;2023-11-19T14:20:08;1.53;;;0.87;;
9445;SDS011;4761;49.490;10.908;2023-11-19T14:22:38;0.50;;;0.50;;
9445;SDS011;4761;49.490;10.908;2023-11-19T14:25:04;0.80;;;0.50;;
9445;SDS011;4761;49.490;10.908;2023-11-19T14:27:34;0.50;;;0.50;;
9445;SDS011;4761;49.490;10.908;2023-11-19T14:30:04;1.17;;;0.80;;
9445;SDS011;4761;49.490;10.908;2023-11-19T14:32:31;0.80;;;0.50;;
9445;SDS011;4761;49.490;10.908;2023-11-19T14:34:56;1.03;;;0.70;;
9445;SDS011;4761;49.490;10.908;2023-11-19T14:37:22;1.10;;;0.70;;
9445;SDS011;4761;49.490;10.908;2023-11-19T14:39:47;1.10;;;0.80;;
9445;SDS011;4761;49.490;10.908;2023-11-19T14:42:15;1.13;;;0.60;;
9445;SDS011;4761;49.490;10.908;2023-11-19T14:44:41;0.50;;;0.50;;
9445;SDS011;4761;49.490;10.908;2023-11-19T14:47:07;1.17;;;0.70;;
9445;SDS011;4761;49.490;10.908;2023-11-19T14:49:34;0.93;;;0.63;;
9445;SDS011;4761;49.490;10.908;2023-11-19T14:52:00;1.10;;;0.70;;
9445;SDS011;4761;49.490;10.908;2023-11-19T14:54:25;0.90;;;0.50;;
9445;SDS011;4761;49.490;10.908;2023-11-19T14:56:51;0.80;;;0.60;;
9445;SDS011;4761;49.490;10.908;2023-11-19T14:59:17;0.90;;;0.60;;
9445;SDS011;4761;49.490;10.908;2023-11-19T15:01:44;1.70;;;0.73;;
9445;SDS011;4761;49.490;10.908;2023-11-19T15:04:10;0.90;;;0.50;;
9445;SDS011;4761;49.490;10.908;2023-11-19T15:06:36;0.70;;;0.63;;
9445;SDS011;4761;49.490;10.908;2023-11-19T15:09:03;0.50;;;0.50;;
9445;SDS011;4761;49.490;10.908;2023-11-19T15:11:29;1.03;;;0.60;;
9445;SDS011;4761;49.490;10.908;2023-11-19T15:13:55;1.17;;;0.70;;
9445;SDS011;4761;49.490;10.908;2023-11-19T15:16:21;1.07;;;0.80;;
9445;SDS011;4761;49.490;10.908;2023-11-19T15:18:56;0.80;;;0.60;;
9445;SDS011;4761;49.490;10.908;2023-11-19T15:21:25;1.23;;;0.70;;